Gabo Island, Australia

7:15 AM AEDT on December 09, 2016 (GMT +1100)
Main Wharf, Mallacoota, Vic, Australia | | Change Station

Elev 29 ft 37.55 °S, 149.76 °E | Updated 6 seconds ago

Mostly Cloudy
Mostly Cloudy
49.4 °F
Feels Like 49 °F
N
0.0
Wind Variable Wind from SW
Gusts 15.0 mph

Today
High -- | Low -- °F
--% Chance of Precip.
Yesterday
High -- | Low -- °F
Precip. -- in
Pressure 29.71 in
Visibility 6.2 miles
Clouds Scattered Clouds 12500 ft
Windchill 49 °F
Dew Point 44 °F
Humidity 82%
Rainfall 0.01 in
Snow Depth Not available.
5:32 AM 8:13 PM
Waxing Gibbous, 66% visible
METAR YMER 082000Z AUTO 25011KT 9999 // SCT125 14/04 Q1006
Pressure 29.71 in
Visibility 6.2 miles
Clouds Scattered Clouds 12500 ft
Windchill 49 °F
Dew Point 44 °F
Humidity 82%
Rainfall 0.01 in
Snow Depth Not available.
5:32 AM 8:13 PM
Waxing Gibbous, 66% visible
METAR YMER 082000Z AUTO 25011KT 9999 // SCT125 14/04 Q1006

10-Day Weather Forecast

×

Almanac

Astronomy

Dec. 09, 2016 Rise Set
Actual Time
Civil Twilight
Nautical Twilight
Astronomical Twilight
Moon
Length of Visible Light
Length of Day
Tomorrow will be .
, % of the Moon is Illuminated

Today's Extremes

Country Highs Country Lows

Community

WunderPhotos

Upload Photos

1,956,277 photos uploaded!

WunderBlog® & News

Nearby

Air Quality

  Air Quality AQ Index Pollutant
Not available.

Snow Depth

Station Depth Elevation

Earthquake Activity

City Distance Mag. Time & Date
Minimum magnitude displayed is 2.5.

Coastal Water Temperatures

Place Temperature

Stations

Nearby Weather Stations

Station Location Temp. Windchill Dew Point Humidity Wind Precip. Elev Updated Type